Ever Ulysses — 9V7962 — position and weather

sailwx.info

Track history (hours):
 
Tides and Currents Weather Stations Pressure Air Temp Water Temp Dewpoint Dewpoint Depression Visibility Wind Speed Wind Dir Waves Ship Positions

Ever Ulysses

Last reported at 2014-Sep-21 04:30 UTC. Time now 2014-Sep-21 06:02 UTC.
Position N 38°56' E 118°04'.

Length 285 m; draft 9.9 m.

Type: Ship (hazmat cat D). MMSI: 564442000.

Date/timePositionNaut miles runAvg speedWind from/ knotsBaromVisibWave heightAir tempDewpointWater temp
2014-Sep-21 04:30N 38°56' E 118°04'1212.6
2014-Sep-21 03:33N 38°58' E 117°49'2 1.6
2014-Sep-21 02:31N 38°59' E 117°47'0 0.0
2014-Sep-21 01:31N 38°59' E 117°47'0 0.0
2014-Sep-21 00:25N 38°59' E 117°47'0 0.0
2014-Sep-20 23:31N 38°59' E 117°47'0 0.0
2014-Sep-20 22:07N 38°59' E 117°47'0 0.0
2014-Sep-20 21:31N 38°59' E 117°47'0 0.0
2014-Sep-20 20:31N 38°59' E 117°47'0 0.0
2014-Sep-20 19:25N 38°59' E 117°47'0 0.0
2014-Sep-20 18:31N 38°59' E 117°47'0 0.0
2014-Sep-20 17:31N 38°59' E 117°47'0 0.0
2014-Sep-20 16:31N 38°59' E 117°47'0 0.0
2014-Sep-20 15:19N 38°59' E 117°47'0 0.0
2014-Sep-20 14:31N 38°59' E 117°47'0 0.0
2014-Sep-20 13:31N 38°59' E 117°47'0 0.0
2014-Sep-20 12:25N 38°59' E 117°47'0 0.1
2014-Sep-20 11:34N 38°59' E 117°47'7 6.8
2014-Sep-20 10:34N 38°57' E 117°55'13 9.4
2014-Sep-20 09:11N 38°52' E 118°11'153 7.4
2014-Sep-19 12:30N 38°23' E 121°23'2813.6
2014-Sep-19 10:29N 38°07' E 121°52'1313.7
2014-Sep-19 09:33N 38°00' E 122°05'1414.1
2014-Sep-19 08:33N 37°52' E 122°20'1414.6
2014-Sep-19 07:34N 37°44' E 122°35'1414.2
2014-Sep-19 06:34N 37°35' E 122°49'1413.5
2014-Sep-19 05:29N 37°25' E 123°03'4113.9
2014-Sep-19 02:33N 36°50' E 123°28'  
Track history (hours):
 
Tides and Currents Weather Stations Pressure Air Temp Water Temp Dewpoint Dewpoint Depression Visibility Wind Speed Wind Dir Waves Ship Positions

Ever Ulysses

Last reported at 2014-Sep-21 04:30 UTC. Time now 2014-Sep-21 06:02 UTC.
Position N 38°56' E 118°04'.

Length 285 m; draft 9.9 m.

Type: Ship (hazmat cat D). MMSI: 564442000.

Date/timePositionNaut miles runAvg speedWind from/ knotsBaromVisibWave heightAir tempDewpointWater temp
2014-Sep-21 04:30N 38°56' E 118°04'1212.6
2014-Sep-21 03:33N 38°58' E 117°49'2 1.6
2014-Sep-21 02:31N 38°59' E 117°47'0 0.0
2014-Sep-21 01:31N 38°59' E 117°47'0 0.0
2014-Sep-21 00:25N 38°59' E 117°47'0 0.0
2014-Sep-20 23:31N 38°59' E 117°47'0 0.0
2014-Sep-20 22:07N 38°59' E 117°47'0 0.0
2014-Sep-20 21:31N 38°59' E 117°47'0 0.0
2014-Sep-20 20:31N 38°59' E 117°47'0 0.0
2014-Sep-20 19:25N 38°59' E 117°47'0 0.0
2014-Sep-20 18:31N 38°59' E 117°47'0 0.0
2014-Sep-20 17:31N 38°59' E 117°47'0 0.0
2014-Sep-20 16:31N 38°59' E 117°47'0 0.0
2014-Sep-20 15:19N 38°59' E 117°47'0 0.0
2014-Sep-20 14:31N 38°59' E 117°47'0 0.0
2014-Sep-20 13:31N 38°59' E 117°47'0 0.0
2014-Sep-20 12:25N 38°59' E 117°47'0 0.1
2014-Sep-20 11:34N 38°59' E 117°47'7 6.8
2014-Sep-20 10:34N 38°57' E 117°55'13 9.4
2014-Sep-20 09:11N 38°52' E 118°11'153 7.4
2014-Sep-19 12:30N 38°23' E 121°23'2813.6
2014-Sep-19 10:29N 38°07' E 121°52'1313.7
2014-Sep-19 09:33N 38°00' E 122°05'1414.1
2014-Sep-19 08:33N 37°52' E 122°20'1414.6
2014-Sep-19 07:34N 37°44' E 122°35'1414.2
2014-Sep-19 06:34N 37°35' E 122°49'1413.5
2014-Sep-19 05:29N 37°25' E 123°03'4113.9
2014-Sep-19 02:33N 36°50' E 123°28'  

Dump ship's entire track history